sensor_id;sensor_type;location;lat;lon;timestamp;P1;durP1;ratioP1;P2;durP2;ratioP2
9254;SDS011;4663;49.120;9.730;2022-12-24T00:00:22;35.10;;;33.05;;
9254;SDS011;4663;49.120;9.730;2022-12-24T00:02:49;32.92;;;31.17;;
9254;SDS011;4663;49.120;9.730;2022-12-24T00:05:14;33.88;;;32.08;;
9254;SDS011;4663;49.120;9.730;2022-12-24T00:07:40;33.30;;;31.38;;
9254;SDS011;4663;49.120;9.730;2022-12-24T00:10:05;33.83;;;31.85;;
9254;SDS011;4663;49.120;9.730;2022-12-24T00:12:31;33.70;;;32.03;;
9254;SDS011;4663;49.120;9.730;2022-12-24T00:14:57;33.58;;;31.77;;
9254;SDS011;4663;49.120;9.730;2022-12-24T00:17:22;34.00;;;32.13;;
9254;SDS011;4663;49.120;9.730;2022-12-24T00:19:47;35.10;;;33.17;;
9254;SDS011;4663;49.120;9.730;2022-12-24T00:22:13;37.72;;;35.58;;
9254;SDS011;4663;49.120;9.730;2022-12-24T00:24:38;34.03;;;32.08;;
9254;SDS011;4663;49.120;9.730;2022-12-24T00:27:04;35.78;;;33.65;;
9254;SDS011;4663;49.120;9.730;2022-12-24T00:29:30;33.38;;;31.45;;
9254;SDS011;4663;49.120;9.730;2022-12-24T00:31:56;32.90;;;31.20;;
9254;SDS011;4663;49.120;9.730;2022-12-24T00:34:22;35.03;;;32.80;;
9254;SDS011;4663;49.120;9.730;2022-12-24T00:36:48;34.47;;;32.63;;
9254;SDS011;4663;49.120;9.730;2022-12-24T00:39:13;34.58;;;32.58;;
9254;SDS011;4663;49.120;9.730;2022-12-24T00:41:38;33.80;;;31.95;;
9254;SDS011;4663;49.120;9.730;2022-12-24T00:44:05;32.75;;;31.02;;
9254;SDS011;4663;49.120;9.730;2022-12-24T00:46:34;28.67;;;26.67;;
9254;SDS011;4663;49.120;9.730;2022-12-24T00:49:00;31.00;;;29.27;;
9254;SDS011;4663;49.120;9.730;2022-12-24T00:51:25;28.85;;;27.02;;
9254;SDS011;4663;49.120;9.730;2022-12-24T00:53:51;28.17;;;26.55;;
9254;SDS011;4663;49.120;9.730;2022-12-24T00:56:17;26.15;;;24.85;;
9254;SDS011;4663;49.120;9.730;2022-12-24T00:58:42;25.73;;;24.20;;
9254;SDS011;4663;49.120;9.730;2022-12-24T01:01:08;24.67;;;23.08;;
9254;SDS011;4663;49.120;9.730;2022-12-24T01:03:34;22.17;;;20.83;;
9254;SDS011;4663;49.120;9.730;2022-12-24T01:06:03;22.75;;;21.30;;
9254;SDS011;4663;49.120;9.730;2022-12-24T01:08:36;17.70;;;16.65;;
9254;SDS011;4663;49.120;9.730;2022-12-24T01:11:03;15.98;;;15.18;;
9254;SDS011;4663;49.120;9.730;2022-12-24T01:13:29;17.50;;;16.40;;
9254;SDS011;4663;49.120;9.730;2022-12-24T01:15:54;16.65;;;15.63;;
9254;SDS011;4663;49.120;9.730;2022-12-24T01:18:20;17.33;;;16.23;;
9254;SDS011;4663;49.120;9.730;2022-12-24T01:20:53;17.15;;;15.77;;
9254;SDS011;4663;49.120;9.730;2022-12-24T01:23:26;18.35;;;16.80;;
9254;SDS011;4663;49.120;9.730;2022-12-24T01:25:52;19.80;;;18.48;;
9254;SDS011;4663;49.120;9.730;2022-12-24T01:28:18;18.83;;;17.52;;
9254;SDS011;4663;49.120;9.730;2022-12-24T01:30:44;15.95;;;15.00;;
9254;SDS011;4663;49.120;9.730;2022-12-24T01:33:10;17.27;;;16.00;;
9254;SDS011;4663;49.120;9.730;2022-12-24T01:35:39;16.35;;;15.00;;
9254;SDS011;4663;49.120;9.730;2022-12-24T01:38:05;15.20;;;14.30;;
9254;SDS011;4663;49.120;9.730;2022-12-24T01:40:30;17.80;;;16.63;;
9254;SDS011;4663;49.120;9.730;2022-12-24T01:43:15;17.90;;;16.47;;
9254;SDS011;4663;49.120;9.730;2022-12-24T01:45:48;17.52;;;16.20;;
9254;SDS011;4663;49.120;9.730;2022-12-24T01:50:52;16.70;;;15.57;;
9254;SDS011;4663;49.120;9.730;2022-12-24T01:53:21;17.20;;;15.85;;
9254;SDS011;4663;49.120;9.730;2022-12-24T01:55:47;16.52;;;15.43;;
9254;SDS011;4663;49.120;9.730;2022-12-24T01:58:14;18.90;;;17.50;;
9254;SDS011;4663;49.120;9.730;2022-12-24T02:00:44;15.93;;;14.95;;
9254;SDS011;4663;49.120;9.730;2022-12-24T02:03:10;16.35;;;14.93;;
9254;SDS011;4663;49.120;9.730;2022-12-24T02:05:38;16.52;;;15.23;;
9254;SDS011;4663;49.120;9.730;2022-12-24T02:08:17;16.50;;;15.15;;
9254;SDS011;4663;49.120;9.730;2022-12-24T02:10:44;15.63;;;14.73;;
9254;SDS011;4663;49.120;9.730;2022-12-24T02:13:11;16.88;;;15.73;;
9254;SDS011;4663;49.120;9.730;2022-12-24T02:15:50;15.70;;;14.68;;
9254;SDS011;4663;49.120;9.730;2022-12-24T02:29:50;21.75;;;19.90;;
9254;SDS011;4663;49.120;9.730;2022-12-24T02:32:25;25.42;;;23.85;;
9254;SDS011;4663;49.120;9.730;2022-12-24T02:37:43;27.17;;;25.70;;
9254;SDS011;4663;49.120;9.730;2022-12-24T02:40:15;26.63;;;25.13;;
9254;SDS011;4663;49.120;9.730;2022-12-24T02:42:47;27.27;;;25.40;;
9254;SDS011;4663;49.120;9.730;2022-12-24T02:45:21;28.87;;;27.27;;
9254;SDS011;4663;49.120;9.730;2022-12-24T02:47:52;30.13;;;28.30;;
9254;SDS011;4663;49.120;9.730;2022-12-24T02:50:19;30.33;;;28.67;;
9254;SDS011;4663;49.120;9.730;2022-12-24T02:52:45;31.20;;;29.27;;
9254;SDS011;4663;49.120;9.730;2022-12-24T02:55:13;32.47;;;30.20;;
9254;SDS011;4663;49.120;9.730;2022-12-24T03:00:48;32.72;;;30.77;;
9254;SDS011;4663;49.120;9.730;2022-12-24T03:06:14;30.45;;;28.38;;
9254;SDS011;4663;49.120;9.730;2022-12-24T03:08:58;27.25;;;25.45;;
9254;SDS011;4663;49.120;9.730;2022-12-24T03:11:29;25.67;;;24.13;;
9254;SDS011;4663;49.120;9.730;2022-12-24T03:13:54;26.10;;;24.13;;
9254;SDS011;4663;49.120;9.730;2022-12-24T03:16:23;22.70;;;21.55;;
9254;SDS011;4663;49.120;9.730;2022-12-24T03:18:51;23.30;;;21.80;;
9254;SDS011;4663;49.120;9.730;2022-12-24T03:23:47;25.40;;;23.63;;
9254;SDS011;4663;49.120;9.730;2022-12-24T03:26:13;28.73;;;27.03;;
9254;SDS011;4663;49.120;9.730;2022-12-24T03:28:41;29.05;;;27.08;;
9254;SDS011;4663;49.120;9.730;2022-12-24T03:31:08;28.93;;;27.23;;
9254;SDS011;4663;49.120;9.730;2022-12-24T03:33:35;30.73;;;28.60;;
9254;SDS011;4663;49.120;9.730;2022-12-24T03:36:01;32.47;;;29.87;;
9254;SDS011;4663;49.120;9.730;2022-12-24T03:38:27;30.97;;;28.60;;
9254;SDS011;4663;49.120;9.730;2022-12-24T03:40:52;30.57;;;28.83;;
9254;SDS011;4663;49.120;9.730;2022-12-24T03:43:18;32.00;;;29.30;;
9254;SDS011;4663;49.120;9.730;2022-12-24T03:45:43;28.58;;;26.98;;
9254;SDS011;4663;49.120;9.730;2022-12-24T03:48:08;27.33;;;25.67;;
9254;SDS011;4663;49.120;9.730;2022-12-24T03:50:34;28.98;;;27.27;;
9254;SDS011;4663;49.120;9.730;2022-12-24T03:53:00;28.07;;;26.37;;
9254;SDS011;4663;49.120;9.730;2022-12-24T03:55:25;30.03;;;28.13;;
9254;SDS011;4663;49.120;9.730;2022-12-24T03:57:50;26.30;;;24.43;;
9254;SDS011;4663;49.120;9.730;2022-12-24T04:00:16;25.87;;;24.10;;
9254;SDS011;4663;49.120;9.730;2022-12-24T04:02:42;26.40;;;24.80;;
9254;SDS011;4663;49.120;9.730;2022-12-24T04:05:07;25.15;;;23.38;;
9254;SDS011;4663;49.120;9.730;2022-12-24T04:07:37;27.52;;;25.85;;
9254;SDS011;4663;49.120;9.730;2022-12-24T04:10:03;29.40;;;27.07;;
9254;SDS011;4663;49.120;9.730;2022-12-24T04:12:29;28.50;;;26.17;;
9254;SDS011;4663;49.120;9.730;2022-12-24T04:14:54;27.30;;;25.70;;
9254;SDS011;4663;49.120;9.730;2022-12-24T04:17:19;29.38;;;27.58;;
9254;SDS011;4663;49.120;9.730;2022-12-24T04:19:45;29.10;;;27.13;;
9254;SDS011;4663;49.120;9.730;2022-12-24T04:22:10;31.73;;;29.57;;
9254;SDS011;4663;49.120;9.730;2022-12-24T04:24:35;32.47;;;30.63;;
9254;SDS011;4663;49.120;9.730;2022-12-24T04:27:01;33.20;;;31.23;;
9254;SDS011;4663;49.120;9.730;2022-12-24T04:29:26;35.90;;;33.93;;
9254;SDS011;4663;49.120;9.730;2022-12-24T04:31:51;36.63;;;34.47;;
9254;SDS011;4663;49.120;9.730;2022-12-24T04:34:17;37.10;;;34.92;;
9254;SDS011;4663;49.120;9.730;2022-12-24T04:36:42;35.88;;;33.90;;
9254;SDS011;4663;49.120;9.730;2022-12-24T04:39:07;37.58;;;35.00;;
9254;SDS011;4663;49.120;9.730;2022-12-24T04:41:33;37.43;;;35.07;;
9254;SDS011;4663;49.120;9.730;2022-12-24T04:43:58;37.93;;;35.63;;
9254;SDS011;4663;49.120;9.730;2022-12-24T04:46:25;38.67;;;35.80;;
9254;SDS011;4663;49.120;9.730;2022-12-24T04:48:54;37.40;;;35.20;;
9254;SDS011;4663;49.120;9.730;2022-12-24T04:51:20;39.43;;;36.97;;
9254;SDS011;4663;49.120;9.730;2022-12-24T04:53:46;41.03;;;38.40;;
9254;SDS011;4663;49.120;9.730;2022-12-24T04:56:16;37.27;;;35.17;;
9254;SDS011;4663;49.120;9.730;2022-12-24T04:58:43;37.63;;;35.43;;
9254;SDS011;4663;49.120;9.730;2022-12-24T05:01:29;39.23;;;36.80;;
9254;SDS011;4663;49.120;9.730;2022-12-24T05:03:56;39.70;;;37.37;;
9254;SDS011;4663;49.120;9.730;2022-12-24T05:06:23;36.73;;;34.60;;
9254;SDS011;4663;49.120;9.730;2022-12-24T05:08:54;36.83;;;34.77;;
9254;SDS011;4663;49.120;9.730;2022-12-24T05:11:21;34.60;;;32.33;;
9254;SDS011;4663;49.120;9.730;2022-12-24T05:13:47;38.60;;;35.95;;
9254;SDS011;4663;49.120;9.730;2022-12-24T05:16:12;38.03;;;35.97;;
9254;SDS011;4663;49.120;9.730;2022-12-24T05:18:39;37.55;;;34.72;;
9254;SDS011;4663;49.120;9.730;2022-12-24T05:21:14;35.87;;;33.87;;
9254;SDS011;4663;49.120;9.730;2022-12-24T05:23:41;36.85;;;34.45;;
9254;SDS011;4663;49.120;9.730;2022-12-24T05:28:52;33.70;;;31.10;;
9254;SDS011;4663;49.120;9.730;2022-12-24T05:31:20;36.10;;;33.73;;
9254;SDS011;4663;49.120;9.730;2022-12-24T05:33:48;32.50;;;30.37;;
9254;SDS011;4663;49.120;9.730;2022-12-24T05:36:13;33.27;;;31.07;;
9254;SDS011;4663;49.120;9.730;2022-12-24T05:38:39;30.57;;;28.60;;
9254;SDS011;4663;49.120;9.730;2022-12-24T05:41:05;30.97;;;29.13;;
9254;SDS011;4663;49.120;9.730;2022-12-24T05:43:31;27.43;;;25.70;;
9254;SDS011;4663;49.120;9.730;2022-12-24T05:45:57;29.48;;;27.83;;
9254;SDS011;4663;49.120;9.730;2022-12-24T05:48:23;27.13;;;25.50;;
9254;SDS011;4663;49.120;9.730;2022-12-24T05:50:49;25.95;;;24.38;;
9254;SDS011;4663;49.120;9.730;2022-12-24T05:53:14;27.07;;;25.37;;
9254;SDS011;4663;49.120;9.730;2022-12-24T05:55:39;27.40;;;25.37;;
9254;SDS011;4663;49.120;9.730;2022-12-24T05:58:05;28.10;;;26.30;;
9254;SDS011;4663;49.120;9.730;2022-12-24T06:00:30;27.73;;;26.03;;
9254;SDS011;4663;49.120;9.730;2022-12-24T06:02:55;27.03;;;25.20;;
9254;SDS011;4663;49.120;9.730;2022-12-24T06:05:21;26.48;;;24.80;;
9254;SDS011;4663;49.120;9.730;2022-12-24T06:07:46;24.53;;;23.00;;
9254;SDS011;4663;49.120;9.730;2022-12-24T06:10:11;28.27;;;26.23;;
9254;SDS011;4663;49.120;9.730;2022-12-24T06:12:37;27.77;;;25.43;;
9254;SDS011;4663;49.120;9.730;2022-12-24T06:15:02;27.37;;;25.43;;
9254;SDS011;4663;49.120;9.730;2022-12-24T06:17:28;27.27;;;25.53;;
9254;SDS011;4663;49.120;9.730;2022-12-24T06:19:53;27.73;;;25.93;;
9254;SDS011;4663;49.120;9.730;2022-12-24T06:22:19;30.10;;;28.02;;
9254;SDS011;4663;49.120;9.730;2022-12-24T06:24:44;29.23;;;27.30;;
9254;SDS011;4663;49.120;9.730;2022-12-24T06:27:09;32.15;;;29.95;;
9254;SDS011;4663;49.120;9.730;2022-12-24T06:29:35;31.97;;;30.00;;
9254;SDS011;4663;49.120;9.730;2022-12-24T06:32:00;32.83;;;30.33;;
9254;SDS011;4663;49.120;9.730;2022-12-24T06:34:26;32.45;;;30.52;;
9254;SDS011;4663;49.120;9.730;2022-12-24T06:36:51;32.77;;;30.47;;
9254;SDS011;4663;49.120;9.730;2022-12-24T06:39:16;33.80;;;31.27;;
9254;SDS011;4663;49.120;9.730;2022-12-24T06:41:42;35.40;;;32.90;;
9254;SDS011;4663;49.120;9.730;2022-12-24T06:44:07;37.17;;;34.03;;
9254;SDS011;4663;49.120;9.730;2022-12-24T06:46:33;38.67;;;36.10;;
9254;SDS011;4663;49.120;9.730;2022-12-24T06:48:58;37.38;;;35.25;;
9254;SDS011;4663;49.120;9.730;2022-12-24T06:51:24;37.70;;;35.20;;
9254;SDS011;4663;49.120;9.730;2022-12-24T06:53:49;39.88;;;37.20;;
9254;SDS011;4663;49.120;9.730;2022-12-24T06:56:15;38.50;;;35.90;;
9254;SDS011;4663;49.120;9.730;2022-12-24T06:58:41;39.93;;;36.83;;
9254;SDS011;4663;49.120;9.730;2022-12-24T07:01:08;35.47;;;33.27;;
9254;SDS011;4663;49.120;9.730;2022-12-24T07:03:35;33.77;;;31.77;;
9254;SDS011;4663;49.120;9.730;2022-12-24T07:06:00;35.33;;;32.70;;
9254;SDS011;4663;49.120;9.730;2022-12-24T07:08:26;38.40;;;35.30;;
9254;SDS011;4663;49.120;9.730;2022-12-24T07:10:51;33.40;;;31.23;;
9254;SDS011;4663;49.120;9.730;2022-12-24T07:13:17;33.87;;;31.33;;
9254;SDS011;4663;49.120;9.730;2022-12-24T07:15:43;31.17;;;28.63;;
9254;SDS011;4663;49.120;9.730;2022-12-24T07:18:09;30.00;;;28.03;;
9254;SDS011;4663;49.120;9.730;2022-12-24T07:20:36;33.17;;;30.87;;
9254;SDS011;4663;49.120;9.730;2022-12-24T07:23:02;34.07;;;31.50;;
9254;SDS011;4663;49.120;9.730;2022-12-24T07:25:27;33.73;;;31.30;;
9254;SDS011;4663;49.120;9.730;2022-12-24T07:27:53;34.13;;;31.67;;
9254;SDS011;4663;49.120;9.730;2022-12-24T07:30:18;34.10;;;31.83;;
9254;SDS011;4663;49.120;9.730;2022-12-24T07:32:44;34.60;;;32.37;;
9254;SDS011;4663;49.120;9.730;2022-12-24T07:35:09;34.33;;;31.83;;
9254;SDS011;4663;49.120;9.730;2022-12-24T07:37:34;36.63;;;34.13;;
9254;SDS011;4663;49.120;9.730;2022-12-24T07:40:00;35.00;;;32.70;;
9254;SDS011;4663;49.120;9.730;2022-12-24T07:42:25;37.70;;;35.20;;
9254;SDS011;4663;49.120;9.730;2022-12-24T07:44:51;40.53;;;38.00;;
9254;SDS011;4663;49.120;9.730;2022-12-24T07:47:16;38.43;;;36.00;;
9254;SDS011;4663;49.120;9.730;2022-12-24T07:49:42;40.27;;;37.80;;
9254;SDS011;4663;49.120;9.730;2022-12-24T07:52:07;40.43;;;37.47;;
9254;SDS011;4663;49.120;9.730;2022-12-24T07:54:33;38.57;;;35.93;;
9254;SDS011;4663;49.120;9.730;2022-12-24T07:56:58;37.37;;;34.90;;
9254;SDS011;4663;49.120;9.730;2022-12-24T07:59:24;37.93;;;35.23;;
9254;SDS011;4663;49.120;9.730;2022-12-24T08:01:50;35.80;;;33.60;;
9254;SDS011;4663;49.120;9.730;2022-12-24T08:04:15;36.77;;;34.37;;
9254;SDS011;4663;49.120;9.730;2022-12-24T08:06:40;32.93;;;30.87;;
9254;SDS011;4663;49.120;9.730;2022-12-24T08:09:06;32.40;;;30.13;;
9254;SDS011;4663;49.120;9.730;2022-12-24T08:11:31;31.03;;;28.47;;
9254;SDS011;4663;49.120;9.730;2022-12-24T08:13:57;35.70;;;33.45;;
9254;SDS011;4663;49.120;9.730;2022-12-24T08:16:22;34.17;;;31.70;;
9254;SDS011;4663;49.120;9.730;2022-12-24T08:18:47;33.43;;;31.27;;
9254;SDS011;4663;49.120;9.730;2022-12-24T08:21:13;32.83;;;30.47;;
9254;SDS011;4663;49.120;9.730;2022-12-24T08:23:38;30.70;;;28.03;;
9254;SDS011;4663;49.120;9.730;2022-12-24T08:26:07;27.53;;;25.83;;
9254;SDS011;4663;49.120;9.730;2022-12-24T08:28:33;29.40;;;27.30;;
9254;SDS011;4663;49.120;9.730;2022-12-24T08:30:59;26.80;;;24.63;;
9254;SDS011;4663;49.120;9.730;2022-12-24T08:33:24;24.13;;;22.27;;
9254;SDS011;4663;49.120;9.730;2022-12-24T08:35:51;23.50;;;21.87;;
9254;SDS011;4663;49.120;9.730;2022-12-24T08:38:18;23.20;;;21.40;;
9254;SDS011;4663;49.120;9.730;2022-12-24T08:40:44;21.43;;;19.70;;
9254;SDS011;4663;49.120;9.730;2022-12-24T08:43:12;20.30;;;18.77;;
9254;SDS011;4663;49.120;9.730;2022-12-24T08:45:38;18.50;;;17.13;;
9254;SDS011;4663;49.120;9.730;2022-12-24T08:48:04;21.05;;;19.25;;
9254;SDS011;4663;49.120;9.730;2022-12-24T08:50:30;20.55;;;18.65;;
9254;SDS011;4663;49.120;9.730;2022-12-24T08:52:55;17.27;;;15.35;;
9254;SDS011;4663;49.120;9.730;2022-12-24T08:55:21;18.63;;;16.73;;
9254;SDS011;4663;49.120;9.730;2022-12-24T08:57:46;18.00;;;16.50;;
9254;SDS011;4663;49.120;9.730;2022-12-24T09:00:12;16.50;;;15.20;;
9254;SDS011;4663;49.120;9.730;2022-12-24T09:02:38;15.80;;;14.60;;
9254;SDS011;4663;49.120;9.730;2022-12-24T09:05:03;16.90;;;15.40;;
9254;SDS011;4663;49.120;9.730;2022-12-24T09:07:31;16.27;;;14.93;;
9254;SDS011;4663;49.120;9.730;2022-12-24T09:09:57;16.83;;;15.25;;
9254;SDS011;4663;49.120;9.730;2022-12-24T09:12:22;17.45;;;15.85;;
9254;SDS011;4663;49.120;9.730;2022-12-24T09:14:49;17.33;;;16.13;;
9254;SDS011;4663;49.120;9.730;2022-12-24T09:17:15;20.95;;;19.02;;
9254;SDS011;4663;49.120;9.730;2022-12-24T09:19:41;22.77;;;20.67;;
9254;SDS011;4663;49.120;9.730;2022-12-24T09:22:06;24.45;;;22.85;;
9254;SDS011;4663;49.120;9.730;2022-12-24T09:24:32;25.02;;;23.13;;
9254;SDS011;4663;49.120;9.730;2022-12-24T09:26:57;26.50;;;24.27;;
9254;SDS011;4663;49.120;9.730;2022-12-24T09:29:23;23.45;;;21.83;;
9254;SDS011;4663;49.120;9.730;2022-12-24T09:31:49;23.52;;;21.83;;
9254;SDS011;4663;49.120;9.730;2022-12-24T09:34:14;22.40;;;20.92;;
9254;SDS011;4663;49.120;9.730;2022-12-24T09:36:40;23.33;;;21.73;;
9254;SDS011;4663;49.120;9.730;2022-12-24T09:39:05;26.02;;;24.25;;
9254;SDS011;4663;49.120;9.730;2022-12-24T09:47:32;27.95;;;25.83;;
9254;SDS011;4663;49.120;9.730;2022-12-24T09:53:04;22.10;;;20.73;;
9254;SDS011;4663;49.120;9.730;2022-12-24T09:55:45;21.38;;;19.50;;
9254;SDS011;4663;49.120;9.730;2022-12-24T09:58:15;18.70;;;17.00;;
9254;SDS011;4663;49.120;9.730;2022-12-24T10:00:46;19.00;;;16.92;;
9254;SDS011;4663;49.120;9.730;2022-12-24T10:03:15;15.45;;;14.15;;
9254;SDS011;4663;49.120;9.730;2022-12-24T10:08:34;15.95;;;14.65;;
9254;SDS011;4663;49.120;9.730;2022-12-24T10:11:13;15.65;;;14.13;;
9254;SDS011;4663;49.120;9.730;2022-12-24T10:16:16;17.90;;;16.15;;
9254;SDS011;4663;49.120;9.730;2022-12-24T10:19:09;16.83;;;15.50;;
9254;SDS011;4663;49.120;9.730;2022-12-24T10:21:40;16.83;;;15.27;;
9254;SDS011;4663;49.120;9.730;2022-12-24T10:29:31;15.60;;;14.00;;
9254;SDS011;4663;49.120;9.730;2022-12-24T10:34:35;14.73;;;13.30;;
9254;SDS011;4663;49.120;9.730;2022-12-24T10:37:05;15.90;;;14.50;;
9254;SDS011;4663;49.120;9.730;2022-12-24T10:39:53;14.52;;;13.32;;
9254;SDS011;4663;49.120;9.730;2022-12-24T10:42:20;14.07;;;12.73;;
9254;SDS011;4663;49.120;9.730;2022-12-24T10:44:49;17.70;;;15.38;;
9254;SDS011;4663;49.120;9.730;2022-12-24T10:47:19;15.55;;;14.05;;
9254;SDS011;4663;49.120;9.730;2022-12-24T10:49:47;13.98;;;12.82;;
9254;SDS011;4663;49.120;9.730;2022-12-24T10:52:19;16.63;;;14.55;;
9254;SDS011;4663;49.120;9.730;2022-12-24T10:57:35;14.98;;;13.40;;
9254;SDS011;4663;49.120;9.730;2022-12-24T11:00:02;16.52;;;15.23;;
9254;SDS011;4663;49.120;9.730;2022-12-24T11:02:34;15.65;;;14.10;;
9254;SDS011;4663;49.120;9.730;2022-12-24T11:05:04;14.63;;;13.05;;
9254;SDS011;4663;49.120;9.730;2022-12-24T11:07:58;15.13;;;13.88;;
9254;SDS011;4663;49.120;9.730;2022-12-24T11:10:24;14.27;;;12.90;;
9254;SDS011;4663;49.120;9.730;2022-12-24T11:12:49;13.68;;;12.40;;
9254;SDS011;4663;49.120;9.730;2022-12-24T11:15:16;14.88;;;13.38;;
9254;SDS011;4663;49.120;9.730;2022-12-24T11:17:55;14.93;;;13.55;;
9254;SDS011;4663;49.120;9.730;2022-12-24T11:20:27;14.88;;;13.63;;
9254;SDS011;4663;49.120;9.730;2022-12-24T11:22:54;15.50;;;14.15;;
9254;SDS011;4663;49.120;9.730;2022-12-24T11:27:47;13.68;;;12.50;;
9254;SDS011;4663;49.120;9.730;2022-12-24T11:33:13;15.77;;;14.23;;
9254;SDS011;4663;49.120;9.730;2022-12-24T11:35:30;16.17;;;14.63;;
9254;SDS011;4663;49.120;9.730;2022-12-24T11:41:00;13.90;;;12.90;;
9254;SDS011;4663;49.120;9.730;2022-12-24T11:43:26;16.20;;;14.77;;
9254;SDS011;4663;49.120;9.730;2022-12-24T11:46:21;15.68;;;14.48;;
9254;SDS011;4663;49.120;9.730;2022-12-24T11:51:36;14.27;;;13.27;;
9254;SDS011;4663;49.120;9.730;2022-12-24T11:54:18;15.35;;;13.77;;
9254;SDS011;4663;49.120;9.730;2022-12-24T11:56:54;16.08;;;14.57;;
9254;SDS011;4663;49.120;9.730;2022-12-24T12:04:51;15.30;;;13.88;;
9254;SDS011;4663;49.120;9.730;2022-12-24T12:07:29;14.60;;;13.45;;
9254;SDS011;4663;49.120;9.730;2022-12-24T12:10:05;17.30;;;15.65;;
9254;SDS011;4663;49.120;9.730;2022-12-24T12:12:41;16.73;;;15.43;;
9254;SDS011;4663;49.120;9.730;2022-12-24T12:15:16;17.60;;;16.35;;
9254;SDS011;4663;49.120;9.730;2022-12-24T12:28:21;15.82;;;14.77;;
9254;SDS011;4663;49.120;9.730;2022-12-24T12:31:02;15.13;;;14.15;;
9254;SDS011;4663;49.120;9.730;2022-12-24T12:33:36;15.63;;;14.70;;
9254;SDS011;4663;49.120;9.730;2022-12-24T12:36:06;14.85;;;13.75;;
9254;SDS011;4663;49.120;9.730;2022-12-24T12:38:34;15.65;;;14.55;;
9254;SDS011;4663;49.120;9.730;2022-12-24T12:52:21;22.15;;;20.25;;
9254;SDS011;4663;49.120;9.730;2022-12-24T12:57:44;20.80;;;18.83;;
9254;SDS011;4663;49.120;9.730;2022-12-24T13:00:12;19.17;;;17.25;;
9254;SDS011;4663;49.120;9.730;2022-12-24T13:13:27;16.48;;;13.75;;
9254;SDS011;4663;49.120;9.730;2022-12-24T13:15:56;15.48;;;14.15;;
9254;SDS011;4663;49.120;9.730;2022-12-24T13:21:43;17.02;;;15.60;;
9254;SDS011;4663;49.120;9.730;2022-12-24T13:24:20;16.48;;;15.18;;
9254;SDS011;4663;49.120;9.730;2022-12-24T13:32:35;16.88;;;15.52;;
9254;SDS011;4663;49.120;9.730;2022-12-24T13:37:20;17.52;;;16.25;;
9254;SDS011;4663;49.120;9.730;2022-12-24T13:47:53;29.70;;;27.92;;
9254;SDS011;4663;49.120;9.730;2022-12-24T13:50:22;28.67;;;26.73;;
9254;SDS011;4663;49.120;9.730;2022-12-24T13:52:53;30.58;;;28.10;;
9254;SDS011;4663;49.120;9.730;2022-12-24T13:55:20;32.47;;;30.38;;
9254;SDS011;4663;49.120;9.730;2022-12-24T14:05:26;36.50;;;34.38;;
9254;SDS011;4663;49.120;9.730;2022-12-24T14:07:54;36.38;;;34.20;;
9254;SDS011;4663;49.120;9.730;2022-12-24T14:10:22;46.85;;;44.20;;
9254;SDS011;4663;49.120;9.730;2022-12-24T14:12:52;32.70;;;30.67;;
9254;SDS011;4663;49.120;9.730;2022-12-24T14:18:09;25.73;;;23.63;;
9254;SDS011;4663;49.120;9.730;2022-12-24T14:20:35;25.40;;;23.55;;
9254;SDS011;4663;49.120;9.730;2022-12-24T14:23:01;21.58;;;19.95;;
9254;SDS011;4663;49.120;9.730;2022-12-24T14:25:30;19.90;;;18.35;;
9254;SDS011;4663;49.120;9.730;2022-12-24T14:27:57;18.52;;;16.85;;
9254;SDS011;4663;49.120;9.730;2022-12-24T14:30:29;16.83;;;15.52;;
9254;SDS011;4663;49.120;9.730;2022-12-24T14:32:55;16.80;;;15.40;;
9254;SDS011;4663;49.120;9.730;2022-12-24T14:35:22;16.10;;;14.77;;
9254;SDS011;4663;49.120;9.730;2022-12-24T14:37:51;16.50;;;15.38;;
9254;SDS011;4663;49.120;9.730;2022-12-24T14:40:21;16.70;;;15.45;;
9254;SDS011;4663;49.120;9.730;2022-12-24T14:45:49;16.08;;;14.48;;
9254;SDS011;4663;49.120;9.730;2022-12-24T14:48:56;14.85;;;13.73;;
9254;SDS011;4663;49.120;9.730;2022-12-24T14:57:11;19.27;;;17.77;;
9254;SDS011;4663;49.120;9.730;2022-12-24T14:59:55;20.98;;;19.63;;
9254;SDS011;4663;49.120;9.730;2022-12-24T15:07:36;27.05;;;25.35;;
9254;SDS011;4663;49.120;9.730;2022-12-24T15:10:06;27.60;;;25.70;;
9254;SDS011;4663;49.120;9.730;2022-12-24T15:12:43;30.47;;;28.23;;
9254;SDS011;4663;49.120;9.730;2022-12-24T15:15:13;31.40;;;29.27;;
9254;SDS011;4663;49.120;9.730;2022-12-24T15:17:40;32.57;;;30.63;;
9254;SDS011;4663;49.120;9.730;2022-12-24T15:20:09;34.33;;;32.23;;
9254;SDS011;4663;49.120;9.730;2022-12-24T15:22:40;37.42;;;35.17;;
9254;SDS011;4663;49.120;9.730;2022-12-24T15:27:55;38.27;;;36.03;;
9254;SDS011;4663;49.120;9.730;2022-12-24T15:30:25;37.53;;;35.10;;
9254;SDS011;4663;49.120;9.730;2022-12-24T15:32:53;41.63;;;38.97;;
9254;SDS011;4663;49.120;9.730;2022-12-24T15:41:01;46.20;;;43.63;;
9254;SDS011;4663;49.120;9.730;2022-12-24T15:43:28;47.07;;;44.27;;
9254;SDS011;4663;49.120;9.730;2022-12-24T15:45:55;47.30;;;44.50;;
9254;SDS011;4663;49.120;9.730;2022-12-24T15:48:22;48.23;;;45.20;;
9254;SDS011;4663;49.120;9.730;2022-12-24T15:50:51;47.90;;;44.73;;
9254;SDS011;4663;49.120;9.730;2022-12-24T15:53:25;48.10;;;45.50;;
9254;SDS011;4663;49.120;9.730;2022-12-24T15:58:42;49.30;;;46.53;;
9254;SDS011;4663;49.120;9.730;2022-12-24T16:03:37;49.00;;;45.83;;
9254;SDS011;4663;49.120;9.730;2022-12-24T16:08:33;50.67;;;47.22;;
9254;SDS011;4663;49.120;9.730;2022-12-24T16:13:38;47.55;;;44.53;;
9254;SDS011;4663;49.120;9.730;2022-12-24T16:16:10;52.73;;;49.50;;
9254;SDS011;4663;49.120;9.730;2022-12-24T16:21:39;50.90;;;47.40;;
9254;SDS011;4663;49.120;9.730;2022-12-24T16:24:14;50.60;;;47.20;;
9254;SDS011;4663;49.120;9.730;2022-12-24T16:26:44;50.63;;;47.63;;
9254;SDS011;4663;49.120;9.730;2022-12-24T16:29:10;49.07;;;46.00;;
9254;SDS011;4663;49.120;9.730;2022-12-24T16:31:37;48.77;;;45.77;;
9254;SDS011;4663;49.120;9.730;2022-12-24T16:34:09;49.03;;;46.03;;
9254;SDS011;4663;49.120;9.730;2022-12-24T16:36:39;52.87;;;49.33;;
9254;SDS011;4663;49.120;9.730;2022-12-24T16:39:08;47.67;;;44.37;;
9254;SDS011;4663;49.120;9.730;2022-12-24T16:41:48;46.97;;;44.17;;
9254;SDS011;4663;49.120;9.730;2022-12-24T16:44:33;46.87;;;44.03;;
9254;SDS011;4663;49.120;9.730;2022-12-24T16:46:58;45.97;;;43.07;;
9254;SDS011;4663;49.120;9.730;2022-12-24T16:49:24;45.23;;;42.27;;
9254;SDS011;4663;49.120;9.730;2022-12-24T16:51:50;46.60;;;43.40;;
9254;SDS011;4663;49.120;9.730;2022-12-24T16:54:16;49.15;;;46.42;;
9254;SDS011;4663;49.120;9.730;2022-12-24T16:56:42;48.90;;;45.80;;
9254;SDS011;4663;49.120;9.730;2022-12-24T16:59:15;49.47;;;45.77;;
9254;SDS011;4663;49.120;9.730;2022-12-24T17:01:41;50.53;;;47.03;;
9254;SDS011;4663;49.120;9.730;2022-12-24T17:04:06;49.73;;;46.23;;
9254;SDS011;4663;49.120;9.730;2022-12-24T17:06:31;50.97;;;47.77;;
9254;SDS011;4663;49.120;9.730;2022-12-24T17:08:57;53.00;;;49.30;;
9254;SDS011;4663;49.120;9.730;2022-12-24T17:11:22;50.87;;;47.63;;
9254;SDS011;4663;49.120;9.730;2022-12-24T17:13:48;47.63;;;44.63;;
9254;SDS011;4663;49.120;9.730;2022-12-24T17:16:13;49.30;;;46.37;;
9254;SDS011;4663;49.120;9.730;2022-12-24T17:18:39;49.73;;;46.60;;
9254;SDS011;4663;49.120;9.730;2022-12-24T17:21:04;44.27;;;41.80;;
9254;SDS011;4663;49.120;9.730;2022-12-24T17:23:31;46.13;;;43.10;;
9254;SDS011;4663;49.120;9.730;2022-12-24T17:25:57;42.67;;;39.87;;
9254;SDS011;4663;49.120;9.730;2022-12-24T17:28:22;45.73;;;42.83;;
9254;SDS011;4663;49.120;9.730;2022-12-24T17:30:48;43.75;;;41.13;;
9254;SDS011;4663;49.120;9.730;2022-12-24T17:33:13;43.20;;;40.73;;
9254;SDS011;4663;49.120;9.730;2022-12-24T17:35:39;39.70;;;37.20;;
9254;SDS011;4663;49.120;9.730;2022-12-24T17:38:05;42.60;;;40.00;;
9254;SDS011;4663;49.120;9.730;2022-12-24T17:40:30;44.22;;;41.42;;
9254;SDS011;4663;49.120;9.730;2022-12-24T17:42:56;44.63;;;41.47;;